sensor_id;sensor_type;location;lat;lon;timestamp;temperature;humidity
38428;DHT22;24211;49.980;19.776;2022-09-29T00:01:08;14.60;99.90
38428;DHT22;24211;49.980;19.776;2022-09-29T00:03:36;14.50;99.90
38428;DHT22;24211;49.980;19.776;2022-09-29T00:06:10;14.50;99.90
38428;DHT22;24211;49.980;19.776;2022-09-29T00:08:40;14.50;99.90
38428;DHT22;24211;49.980;19.776;2022-09-29T00:11:10;14.50;99.90
38428;DHT22;24211;49.980;19.776;2022-09-29T00:13:39;14.50;99.90
38428;DHT22;24211;49.980;19.776;2022-09-29T00:16:07;14.50;99.90
38428;DHT22;24211;49.980;19.776;2022-09-29T00:18:35;14.40;99.90
38428;DHT22;24211;49.980;19.776;2022-09-29T00:21:08;14.40;99.90
38428;DHT22;24211;49.980;19.776;2022-09-29T00:23:37;14.40;99.90
38428;DHT22;24211;49.980;19.776;2022-09-29T00:28:54;14.40;99.90
38428;DHT22;24211;49.980;19.776;2022-09-29T00:31:25;14.40;99.90
38428;DHT22;24211;49.980;19.776;2022-09-29T00:33:55;14.40;99.90
38428;DHT22;24211;49.980;19.776;2022-09-29T00:36:24;14.40;99.90
38428;DHT22;24211;49.980;19.776;2022-09-29T00:38:52;14.40;99.90
38428;DHT22;24211;49.980;19.776;2022-09-29T00:41:25;14.30;99.90
38428;DHT22;24211;49.980;19.776;2022-09-29T00:44:00;14.30;99.90
38428;DHT22;24211;49.980;19.776;2022-09-29T00:49:40;14.30;99.90
38428;DHT22;24211;49.980;19.776;2022-09-29T00:52:36;14.20;99.90
38428;DHT22;24211;49.980;19.776;2022-09-29T00:55:17;14.30;99.90
38428;DHT22;24211;49.980;19.776;2022-09-29T00:58:01;14.20;99.90
38428;DHT22;24211;49.980;19.776;2022-09-29T01:00:33;14.20;99.90
38428;DHT22;24211;49.980;19.776;2022-09-29T01:03:07;14.20;99.90
38428;DHT22;24211;49.980;19.776;2022-09-29T01:05:43;14.20;99.90
38428;DHT22;24211;49.980;19.776;2022-09-29T01:08:23;14.20;99.90
38428;DHT22;24211;49.980;19.776;2022-09-29T01:10:56;14.10;99.90
38428;DHT22;24211;49.980;19.776;2022-09-29T01:13:28;14.10;99.90
38428;DHT22;24211;49.980;19.776;2022-09-29T01:15:56;14.00;99.90
38428;DHT22;24211;49.980;19.776;2022-09-29T01:18:23;13.90;99.90
38428;DHT22;24211;49.980;19.776;2022-09-29T01:21:16;13.90;99.90
38428;DHT22;24211;49.980;19.776;2022-09-29T01:27:13;13.90;99.90
38428;DHT22;24211;49.980;19.776;2022-09-29T01:32:51;13.90;99.90
38428;DHT22;24211;49.980;19.776;2022-09-29T01:38:30;13.80;99.90
38428;DHT22;24211;49.980;19.776;2022-09-29T01:44:36;13.80;99.90
38428;DHT22;24211;49.980;19.776;2022-09-29T01:47:13;13.80;99.90
38428;DHT22;24211;49.980;19.776;2022-09-29T01:49:51;13.80;99.90
38428;DHT22;24211;49.980;19.776;2022-09-29T01:52:32;13.80;99.90
38428;DHT22;24211;49.980;19.776;2022-09-29T01:55:09;13.80;99.90
38428;DHT22;24211;49.980;19.776;2022-09-29T01:57:52;13.80;99.90
38428;DHT22;24211;49.980;19.776;2022-09-29T02:00:25;13.80;99.90
38428;DHT22;24211;49.980;19.776;2022-09-29T02:05:56;13.70;99.90
38428;DHT22;24211;49.980;19.776;2022-09-29T02:08:35;13.70;99.90
38428;DHT22;24211;49.980;19.776;2022-09-29T02:11:08;13.70;99.90
38428;DHT22;24211;49.980;19.776;2022-09-29T02:13:57;13.70;99.90
38428;DHT22;24211;49.980;19.776;2022-09-29T02:16:36;13.70;99.90
38428;DHT22;24211;49.980;19.776;2022-09-29T02:19:21;13.70;99.90
38428;DHT22;24211;49.980;19.776;2022-09-29T02:21:53;13.70;99.90
38428;DHT22;24211;49.980;19.776;2022-09-29T02:24:22;13.60;99.90
38428;DHT22;24211;49.980;19.776;2022-09-29T02:26:50;13.60;99.90
38428;DHT22;24211;49.980;19.776;2022-09-29T02:29:18;13.60;99.90
38428;DHT22;24211;49.980;19.776;2022-09-29T02:31:47;13.60;99.90
38428;DHT22;24211;49.980;19.776;2022-09-29T02:34:20;13.50;99.90
38428;DHT22;24211;49.980;19.776;2022-09-29T02:37:08;13.60;99.90
38428;DHT22;24211;49.980;19.776;2022-09-29T02:40:09;13.60;99.90
38428;DHT22;24211;49.980;19.776;2022-09-29T02:45:40;13.50;99.90
38428;DHT22;24211;49.980;19.776;2022-09-29T02:48:57;13.50;99.90
38428;DHT22;24211;49.980;19.776;2022-09-29T02:51:54;13.50;99.90
38428;DHT22;24211;49.980;19.776;2022-09-29T03:00:05;13.40;99.90
38428;DHT22;24211;49.980;19.776;2022-09-29T03:02:39;13.40;99.90
38428;DHT22;24211;49.980;19.776;2022-09-29T03:05:11;13.40;99.90
38428;DHT22;24211;49.980;19.776;2022-09-29T03:07:41;13.40;99.90
38428;DHT22;24211;49.980;19.776;2022-09-29T03:10:10;13.40;99.90
38428;DHT22;24211;49.980;19.776;2022-09-29T03:12:39;13.40;99.90
38428;DHT22;24211;49.980;19.776;2022-09-29T03:15:07;13.40;99.90
38428;DHT22;24211;49.980;19.776;2022-09-29T03:17:38;13.30;99.90
38428;DHT22;24211;49.980;19.776;2022-09-29T03:20:06;13.30;99.90
38428;DHT22;24211;49.980;19.776;2022-09-29T03:22:34;13.30;99.90
38428;DHT22;24211;49.980;19.776;2022-09-29T03:25:03;13.30;99.90
38428;DHT22;24211;49.980;19.776;2022-09-29T03:27:33;13.30;99.90
38428;DHT22;24211;49.980;19.776;2022-09-29T03:30:03;13.30;99.90
38428;DHT22;24211;49.980;19.776;2022-09-29T03:32:31;13.30;99.90
38428;DHT22;24211;49.980;19.776;2022-09-29T03:34:58;13.20;99.90
38428;DHT22;24211;49.980;19.776;2022-09-29T03:37:25;13.20;99.90
38428;DHT22;24211;49.980;19.776;2022-09-29T03:39:52;13.20;99.90
38428;DHT22;24211;49.980;19.776;2022-09-29T03:42:20;13.20;99.90
38428;DHT22;24211;49.980;19.776;2022-09-29T03:44:50;13.20;99.90
38428;DHT22;24211;49.980;19.776;2022-09-29T03:47:17;13.10;99.90
38428;DHT22;24211;49.980;19.776;2022-09-29T03:49:45;13.10;99.90
38428;DHT22;24211;49.980;19.776;2022-09-29T03:52:12;13.10;99.90
38428;DHT22;24211;49.980;19.776;2022-09-29T03:54:39;13.10;99.90
38428;DHT22;24211;49.980;19.776;2022-09-29T03:57:07;13.10;99.90
38428;DHT22;24211;49.980;19.776;2022-09-29T03:59:34;13.10;99.90
38428;DHT22;24211;49.980;19.776;2022-09-29T04:02:03;13.10;99.90
38428;DHT22;24211;49.980;19.776;2022-09-29T04:04:31;13.10;99.90
38428;DHT22;24211;49.980;19.776;2022-09-29T04:06:58;13.10;99.90
38428;DHT22;24211;49.980;19.776;2022-09-29T04:09:25;13.00;99.90
38428;DHT22;24211;49.980;19.776;2022-09-29T04:11:52;13.00;99.90
38428;DHT22;24211;49.980;19.776;2022-09-29T04:14:19;13.00;99.90
38428;DHT22;24211;49.980;19.776;2022-09-29T04:16:48;13.00;99.90
38428;DHT22;24211;49.980;19.776;2022-09-29T04:19:15;13.00;99.90
38428;DHT22;24211;49.980;19.776;2022-09-29T04:21:42;13.00;99.90
38428;DHT22;24211;49.980;19.776;2022-09-29T04:24:10;13.00;99.90
38428;DHT22;24211;49.980;19.776;2022-09-29T04:26:38;13.00;99.90
38428;DHT22;24211;49.980;19.776;2022-09-29T04:29:05;12.90;99.90
38428;DHT22;24211;49.980;19.776;2022-09-29T04:31:33;12.90;99.90
38428;DHT22;24211;49.980;19.776;2022-09-29T04:34:01;12.90;99.90
38428;DHT22;24211;49.980;19.776;2022-09-29T04:36:28;12.90;99.90
38428;DHT22;24211;49.980;19.776;2022-09-29T04:38:56;12.90;99.90
38428;DHT22;24211;49.980;19.776;2022-09-29T04:41:23;12.80;99.90
38428;DHT22;24211;49.980;19.776;2022-09-29T04:43:50;12.80;99.90
38428;DHT22;24211;49.980;19.776;2022-09-29T04:46:17;12.80;99.90
38428;DHT22;24211;49.980;19.776;2022-09-29T04:48:45;12.80;99.90
38428;DHT22;24211;49.980;19.776;2022-09-29T04:51:12;12.80;99.90
38428;DHT22;24211;49.980;19.776;2022-09-29T04:53:39;12.80;99.90
38428;DHT22;24211;49.980;19.776;2022-09-29T04:56:07;12.80;99.90
38428;DHT22;24211;49.980;19.776;2022-09-29T04:58:35;12.80;99.90
38428;DHT22;24211;49.980;19.776;2022-09-29T05:01:07;12.70;99.90
38428;DHT22;24211;49.980;19.776;2022-09-29T05:03:37;12.70;99.90
38428;DHT22;24211;49.980;19.776;2022-09-29T05:06:04;12.70;99.90
38428;DHT22;24211;49.980;19.776;2022-09-29T05:08:32;12.70;99.90
38428;DHT22;24211;49.980;19.776;2022-09-29T05:11:03;12.70;99.90
38428;DHT22;24211;49.980;19.776;2022-09-29T05:13:32;12.70;99.90
38428;DHT22;24211;49.980;19.776;2022-09-29T05:16:00;12.70;99.90
38428;DHT22;24211;49.980;19.776;2022-09-29T05:18:30;12.70;99.90
38428;DHT22;24211;49.980;19.776;2022-09-29T05:21:06;12.70;99.90
38428;DHT22;24211;49.980;19.776;2022-09-29T05:23:54;12.70;99.90
38428;DHT22;24211;49.980;19.776;2022-09-29T05:26:22;12.70;99.90
38428;DHT22;24211;49.980;19.776;2022-09-29T05:28:49;12.70;99.90
38428;DHT22;24211;49.980;19.776;2022-09-29T05:31:17;12.70;99.90
38428;DHT22;24211;49.980;19.776;2022-09-29T05:33:45;12.70;99.90
38428;DHT22;24211;49.980;19.776;2022-09-29T05:36:12;12.70;99.90
38428;DHT22;24211;49.980;19.776;2022-09-29T05:38:40;12.70;99.90
38428;DHT22;24211;49.980;19.776;2022-09-29T05:41:10;12.70;99.90
38428;DHT22;24211;49.980;19.776;2022-09-29T05:43:39;12.70;99.90
38428;DHT22;24211;49.980;19.776;2022-09-29T05:46:08;12.70;99.90
38428;DHT22;24211;49.980;19.776;2022-09-29T05:48:37;12.70;99.90
38428;DHT22;24211;49.980;19.776;2022-09-29T05:51:09;12.70;99.90
38428;DHT22;24211;49.980;19.776;2022-09-29T05:53:39;12.60;99.90
38428;DHT22;24211;49.980;19.776;2022-09-29T05:56:13;12.70;99.90
38428;DHT22;24211;49.980;19.776;2022-09-29T05:58:42;12.60;99.90
38428;DHT22;24211;49.980;19.776;2022-09-29T06:01:12;12.60;99.90
38428;DHT22;24211;49.980;19.776;2022-09-29T06:03:42;12.60;99.90
38428;DHT22;24211;49.980;19.776;2022-09-29T06:06:14;12.70;99.90
38428;DHT22;24211;49.980;19.776;2022-09-29T06:08:45;12.60;99.90
38428;DHT22;24211;49.980;19.776;2022-09-29T06:11:22;12.60;99.90
38428;DHT22;24211;49.980;19.776;2022-09-29T06:13:55;12.70;99.90
38428;DHT22;24211;49.980;19.776;2022-09-29T06:16:24;12.60;99.90
38428;DHT22;24211;49.980;19.776;2022-09-29T06:18:54;12.70;99.90
38428;DHT22;24211;49.980;19.776;2022-09-29T06:21:23;12.70;99.90
38428;DHT22;24211;49.980;19.776;2022-09-29T06:23:54;12.70;99.90
38428;DHT22;24211;49.980;19.776;2022-09-29T06:26:23;12.70;99.90
38428;DHT22;24211;49.980;19.776;2022-09-29T06:28:52;12.70;99.90
38428;DHT22;24211;49.980;19.776;2022-09-29T06:31:22;12.80;99.90
38428;DHT22;24211;49.980;19.776;2022-09-29T06:33:51;12.80;99.90
38428;DHT22;24211;49.980;19.776;2022-09-29T06:36:20;12.80;99.90
38428;DHT22;24211;49.980;19.776;2022-09-29T06:39:11;12.80;99.90
38428;DHT22;24211;49.980;19.776;2022-09-29T06:41:40;12.70;99.90
38428;DHT22;24211;49.980;19.776;2022-09-29T06:44:09;12.80;99.90
38428;DHT22;24211;49.980;19.776;2022-09-29T06:46:37;12.80;99.90
38428;DHT22;24211;49.980;19.776;2022-09-29T06:49:05;12.80;99.90
38428;DHT22;24211;49.980;19.776;2022-09-29T06:51:34;12.80;99.90
38428;DHT22;24211;49.980;19.776;2022-09-29T06:54:14;12.80;99.90
38428;DHT22;24211;49.980;19.776;2022-09-29T06:56:50;12.80;99.90
38428;DHT22;24211;49.980;19.776;2022-09-29T06:59:19;12.80;99.90
38428;DHT22;24211;49.980;19.776;2022-09-29T07:01:46;12.90;99.90
38428;DHT22;24211;49.980;19.776;2022-09-29T07:04:18;12.80;99.90
38428;DHT22;24211;49.980;19.776;2022-09-29T07:06:47;12.90;99.90
38428;DHT22;24211;49.980;19.776;2022-09-29T07:09:16;12.90;99.90
38428;DHT22;24211;49.980;19.776;2022-09-29T07:11:47;12.90;99.90
38428;DHT22;24211;49.980;19.776;2022-09-29T07:14:19;12.90;99.90
38428;DHT22;24211;49.980;19.776;2022-09-29T07:16:49;13.00;99.90
38428;DHT22;24211;49.980;19.776;2022-09-29T07:19:17;13.00;99.90
38428;DHT22;24211;49.980;19.776;2022-09-29T07:21:46;13.00;99.90
38428;DHT22;24211;49.980;19.776;2022-09-29T07:24:15;13.00;99.90
38428;DHT22;24211;49.980;19.776;2022-09-29T07:26:42;13.10;99.90
38428;DHT22;24211;49.980;19.776;2022-09-29T07:29:10;13.10;99.90
38428;DHT22;24211;49.980;19.776;2022-09-29T07:31:42;13.10;99.90
38428;DHT22;24211;49.980;19.776;2022-09-29T07:34:20;13.00;99.90
38428;DHT22;24211;49.980;19.776;2022-09-29T07:36:47;13.10;99.90
38428;DHT22;24211;49.980;19.776;2022-09-29T07:39:15;13.10;99.90
38428;DHT22;24211;49.980;19.776;2022-09-29T07:41:43;13.10;99.90
38428;DHT22;24211;49.980;19.776;2022-09-29T07:44:10;13.10;99.90
38428;DHT22;24211;49.980;19.776;2022-09-29T07:46:37;13.10;99.90
38428;DHT22;24211;49.980;19.776;2022-09-29T07:49:04;13.10;99.90
38428;DHT22;24211;49.980;19.776;2022-09-29T07:51:32;13.10;99.90
38428;DHT22;24211;49.980;19.776;2022-09-29T07:54:03;13.20;99.90
38428;DHT22;24211;49.980;19.776;2022-09-29T07:56:32;13.10;99.90
38428;DHT22;24211;49.980;19.776;2022-09-29T07:59:02;13.20;99.90
38428;DHT22;24211;49.980;19.776;2022-09-29T08:01:31;13.20;99.90
38428;DHT22;24211;49.980;19.776;2022-09-29T08:03:59;13.20;99.90
38428;DHT22;24211;49.980;19.776;2022-09-29T08:06:28;13.20;99.90
38428;DHT22;24211;49.980;19.776;2022-09-29T08:08:55;13.20;99.90
38428;DHT22;24211;49.980;19.776;2022-09-29T08:11:32;13.20;99.90
38428;DHT22;24211;49.980;19.776;2022-09-29T08:14:03;13.30;99.90
38428;DHT22;24211;49.980;19.776;2022-09-29T08:16:30;13.30;99.90
38428;DHT22;24211;49.980;19.776;2022-09-29T08:18:59;13.30;99.90
38428;DHT22;24211;49.980;19.776;2022-09-29T08:21:28;13.40;99.90
38428;DHT22;24211;49.980;19.776;2022-09-29T08:23:57;13.30;99.90
38428;DHT22;24211;49.980;19.776;2022-09-29T08:26:26;13.30;99.90
38428;DHT22;24211;49.980;19.776;2022-09-29T08:29:13;13.30;99.90
38428;DHT22;24211;49.980;19.776;2022-09-29T08:31:44;13.30;99.90
38428;DHT22;24211;49.980;19.776;2022-09-29T08:34:12;13.30;99.90
38428;DHT22;24211;49.980;19.776;2022-09-29T08:36:40;13.30;99.90
38428;DHT22;24211;49.980;19.776;2022-09-29T08:39:09;13.40;99.90
38428;DHT22;24211;49.980;19.776;2022-09-29T08:41:50;13.40;99.90
38428;DHT22;24211;49.980;19.776;2022-09-29T08:44:31;13.50;99.90
38428;DHT22;24211;49.980;19.776;2022-09-29T08:47:24;13.40;99.90
38428;DHT22;24211;49.980;19.776;2022-09-29T08:50:29;13.50;99.90
38428;DHT22;24211;49.980;19.776;2022-09-29T08:53:06;13.50;99.90
38428;DHT22;24211;49.980;19.776;2022-09-29T09:11:45;13.80;99.90
38428;DHT22;24211;49.980;19.776;2022-09-29T09:48:59;15.70;99.90
38428;DHT22;24211;49.980;19.776;2022-09-29T10:03:56;16.00;99.90
38428;DHT22;24211;49.980;19.776;2022-09-29T10:06:25;16.10;99.90
38428;DHT22;24211;49.980;19.776;2022-09-29T10:08:53;16.10;99.90
38428;DHT22;24211;49.980;19.776;2022-09-29T10:11:24;16.10;99.90
38428;DHT22;24211;49.980;19.776;2022-09-29T10:14:18;16.00;99.90
38428;DHT22;24211;49.980;19.776;2022-09-29T10:17:05;16.10;99.90
38428;DHT22;24211;49.980;19.776;2022-09-29T10:40:19;15.90;99.90
38428;DHT22;24211;49.980;19.776;2022-09-29T10:42:48;15.90;99.90
38428;DHT22;24211;49.980;19.776;2022-09-29T10:45:28;15.90;99.90
38428;DHT22;24211;49.980;19.776;2022-09-29T10:48:06;15.80;99.90
38428;DHT22;24211;49.980;19.776;2022-09-29T10:50:53;15.80;99.90
38428;DHT22;24211;49.980;19.776;2022-09-29T10:53:27;15.80;99.90
38428;DHT22;24211;49.980;19.776;2022-09-29T10:56:05;15.80;99.90
38428;DHT22;24211;49.980;19.776;2022-09-29T10:58:53;15.80;99.90
38428;DHT22;24211;49.980;19.776;2022-09-29T11:01:34;15.80;99.90
38428;DHT22;24211;49.980;19.776;2022-09-29T11:06:45;15.80;99.90
38428;DHT22;24211;49.980;19.776;2022-09-29T11:19:59;15.90;99.90
38428;DHT22;24211;49.980;19.776;2022-09-29T11:25:31;16.00;99.90
38428;DHT22;24211;49.980;19.776;2022-09-29T11:33:52;16.10;99.90
38428;DHT22;24211;49.980;19.776;2022-09-29T11:36:45;16.20;99.90
38428;DHT22;24211;49.980;19.776;2022-09-29T11:42:46;16.40;99.90
38428;DHT22;24211;49.980;19.776;2022-09-29T11:46:45;16.40;99.90
38428;DHT22;24211;49.980;19.776;2022-09-29T11:49:14;16.50;99.90
38428;DHT22;24211;49.980;19.776;2022-09-29T11:56:01;16.80;99.90
38428;DHT22;24211;49.980;19.776;2022-09-29T11:58:44;16.90;99.90
38428;DHT22;24211;49.980;19.776;2022-09-29T12:02:02;16.90;99.90
38428;DHT22;24211;49.980;19.776;2022-09-29T12:04:56;16.70;99.90
38428;DHT22;24211;49.980;19.776;2022-09-29T12:07:35;16.70;99.90
38428;DHT22;24211;49.980;19.776;2022-09-29T12:10:28;17.00;99.90
38428;DHT22;24211;49.980;19.776;2022-09-29T12:13:19;17.20;99.90
38428;DHT22;24211;49.980;19.776;2022-09-29T12:16:00;17.30;99.90
38428;DHT22;24211;49.980;19.776;2022-09-29T12:18:39;17.40;99.90
38428;DHT22;24211;49.980;19.776;2022-09-29T12:21:13;17.50;99.90
38428;DHT22;24211;49.980;19.776;2022-09-29T12:23:45;17.50;99.90
38428;DHT22;24211;49.980;19.776;2022-09-29T12:26:20;17.60;99.90
38428;DHT22;24211;49.980;19.776;2022-09-29T12:31:55;17.60;99.90
38428;DHT22;24211;49.980;19.776;2022-09-29T12:37:35;17.60;99.90
38428;DHT22;24211;49.980;19.776;2022-09-29T12:40:19;17.60;99.90
38428;DHT22;24211;49.980;19.776;2022-09-29T12:45:45;17.50;99.90
38428;DHT22;24211;49.980;19.776;2022-09-29T12:51:34;17.30;99.90
38428;DHT22;24211;49.980;19.776;2022-09-29T12:54:35;17.40;99.90
38428;DHT22;24211;49.980;19.776;2022-09-29T12:57:37;17.20;99.90
38428;DHT22;24211;49.980;19.776;2022-09-29T13:00:11;17.20;99.90
38428;DHT22;24211;49.980;19.776;2022-09-29T13:09:00;16.80;99.90
38428;DHT22;24211;49.980;19.776;2022-09-29T13:29:27;15.80;99.90
38428;DHT22;24211;49.980;19.776;2022-09-29T13:31:57;15.80;99.90
38428;DHT22;24211;49.980;19.776;2022-09-29T13:34:33;15.90;99.90
38428;DHT22;24211;49.980;19.776;2022-09-29T13:37:12;15.90;99.90
38428;DHT22;24211;49.980;19.776;2022-09-29T13:39:51;16.00;99.90
38428;DHT22;24211;49.980;19.776;2022-09-29T13:42:39;16.00;99.90
38428;DHT22;24211;49.980;19.776;2022-09-29T13:47:55;16.00;99.90
38428;DHT22;24211;49.980;19.776;2022-09-29T13:50:42;15.80;99.90
38428;DHT22;24211;49.980;19.776;2022-09-29T14:01:09;16.10;99.90
38428;DHT22;24211;49.980;19.776;2022-09-29T14:03:43;16.20;99.90
38428;DHT22;24211;49.980;19.776;2022-09-29T14:06:23;16.10;99.90
38428;DHT22;24211;49.980;19.776;2022-09-29T14:09:19;16.00;99.90
38428;DHT22;24211;49.980;19.776;2022-09-29T14:11:51;15.60;99.90
38428;DHT22;24211;49.980;19.776;2022-09-29T14:14:28;15.30;99.90
38428;DHT22;24211;49.980;19.776;2022-09-29T14:33:08;15.60;99.90
38428;DHT22;24211;49.980;19.776;2022-09-29T14:35:43;15.80;99.90
38428;DHT22;24211;49.980;19.776;2022-09-29T14:43:40;16.10;99.90
38428;DHT22;24211;49.980;19.776;2022-09-29T14:50:00;16.30;99.90
38428;DHT22;24211;49.980;19.776;2022-09-29T15:02:24;16.20;99.90
38428;DHT22;24211;49.980;19.776;2022-09-29T15:04:55;16.30;99.90
38428;DHT22;24211;49.980;19.776;2022-09-29T15:07:27;16.30;99.90
38428;DHT22;24211;49.980;19.776;2022-09-29T15:09:57;16.40;99.90
38428;DHT22;24211;49.980;19.776;2022-09-29T15:12:30;16.40;99.90
38428;DHT22;24211;49.980;19.776;2022-09-29T15:14:58;16.40;99.90
38428;DHT22;24211;49.980;19.776;2022-09-29T15:17:50;16.40;99.90
38428;DHT22;24211;49.980;19.776;2022-09-29T15:20:36;16.40;99.90
38428;DHT22;24211;49.980;19.776;2022-09-29T15:26:25;16.20;99.90
38428;DHT22;24211;49.980;19.776;2022-09-29T15:28:57;16.20;99.90
38428;DHT22;24211;49.980;19.776;2022-09-29T15:31:31;16.20;99.90
38428;DHT22;24211;49.980;19.776;2022-09-29T15:34:03;16.20;99.90
38428;DHT22;24211;49.980;19.776;2022-09-29T15:36:40;15.90;99.90
38428;DHT22;24211;49.980;19.776;2022-09-29T15:39:41;15.50;99.90
38428;DHT22;24211;49.980;19.776;2022-09-29T15:42:21;15.70;99.90
38428;DHT22;24211;49.980;19.776;2022-09-29T15:44:59;15.80;99.90
38428;DHT22;24211;49.980;19.776;2022-09-29T15:47:38;15.70;99.90
38428;DHT22;24211;49.980;19.776;2022-09-29T15:50:22;15.70;99.90
38428;DHT22;24211;49.980;19.776;2022-09-29T15:52:52;15.50;99.90
38428;DHT22;24211;49.980;19.776;2022-09-29T15:55:23;14.80;99.90
38428;DHT22;24211;49.980;19.776;2022-09-29T15:57:51;14.50;99.90
38428;DHT22;24211;49.980;19.776;2022-09-29T16:03:05;14.50;99.90
38428;DHT22;24211;49.980;19.776;2022-09-29T16:05:41;14.40;99.90
38428;DHT22;24211;49.980;19.776;2022-09-29T16:08:22;14.50;99.90
38428;DHT22;24211;49.980;19.776;2022-09-29T16:11:00;14.60;99.90
38428;DHT22;24211;49.980;19.776;2022-09-29T16:13:32;14.70;99.90
38428;DHT22;24211;49.980;19.776;2022-09-29T16:16:05;14.80;99.90
38428;DHT22;24211;49.980;19.776;2022-09-29T16:18:46;14.90;99.90
38428;DHT22;24211;49.980;19.776;2022-09-29T16:21:22;14.60;99.90
38428;DHT22;24211;49.980;19.776;2022-09-29T16:26:49;15.10;99.90
38428;DHT22;24211;49.980;19.776;2022-09-29T16:29:22;15.20;99.90
38428;DHT22;24211;49.980;19.776;2022-09-29T16:31:55;15.00;99.90
38428;DHT22;24211;49.980;19.776;2022-09-29T16:34:29;15.00;99.90
38428;DHT22;24211;49.980;19.776;2022-09-29T16:37:04;15.00;99.90
38428;DHT22;24211;49.980;19.776;2022-09-29T16:39:43;14.90;99.90
38428;DHT22;24211;49.980;19.776;2022-09-29T16:42:24;14.90;99.90
38428;DHT22;24211;49.980;19.776;2022-09-29T16:44:53;14.90;99.90
38428;DHT22;24211;49.980;19.776;2022-09-29T16:47:28;14.80;99.90
38428;DHT22;24211;49.980;19.776;2022-09-29T16:50:01;14.70;99.90
38428;DHT22;24211;49.980;19.776;2022-09-29T16:52:45;14.80;99.90
38428;DHT22;24211;49.980;19.776;2022-09-29T16:57:53;14.60;99.90
38428;DHT22;24211;49.980;19.776;2022-09-29T17:00:32;14.30;99.90
38428;DHT22;24211;49.980;19.776;2022-09-29T17:03:02;14.10;99.90
38428;DHT22;24211;49.980;19.776;2022-09-29T17:05:38;14.00;99.90
38428;DHT22;24211;49.980;19.776;2022-09-29T17:08:15;14.10;99.90
38428;DHT22;24211;49.980;19.776;2022-09-29T17:10:48;14.10;99.90
38428;DHT22;24211;49.980;19.776;2022-09-29T17:13:18;14.10;99.90
38428;DHT22;24211;49.980;19.776;2022-09-29T17:15:48;14.20;99.90
38428;DHT22;24211;49.980;19.776;2022-09-29T17:18:18;14.20;99.90
38428;DHT22;24211;49.980;19.776;2022-09-29T17:20:46;14.30;99.90
38428;DHT22;24211;49.980;19.776;2022-09-29T17:23:13;14.40;99.90
38428;DHT22;24211;49.980;19.776;2022-09-29T17:25:44;14.10;99.90
38428;DHT22;24211;49.980;19.776;2022-09-29T17:28:15;14.20;99.90
38428;DHT22;24211;49.980;19.776;2022-09-29T17:30:47;14.20;99.90
38428;DHT22;24211;49.980;19.776;2022-09-29T17:33:15;14.20;99.90
38428;DHT22;24211;49.980;19.776;2022-09-29T17:35:46;14.30;99.90
38428;DHT22;24211;49.980;19.776;2022-09-29T17:38:22;14.20;99.90
38428;DHT22;24211;49.980;19.776;2022-09-29T17:40:59;14.20;99.90
38428;DHT22;24211;49.980;19.776;2022-09-29T17:43:29;14.30;99.90
38428;DHT22;24211;49.980;19.776;2022-09-29T17:45:58;14.30;99.90
38428;DHT22;24211;49.980;19.776;2022-09-29T17:48:28;14.30;99.90
38428;DHT22;24211;49.980;19.776;2022-09-29T17:50:56;14.30;99.90
38428;DHT22;24211;49.980;19.776;2022-09-29T17:53:25;14.10;99.90
38428;DHT22;24211;49.980;19.776;2022-09-29T17:55:55;13.80;99.90
38428;DHT22;24211;49.980;19.776;2022-09-29T17:58:24;13.90;99.90
38428;DHT22;24211;49.980;19.776;2022-09-29T18:00:54;13.60;99.90
38428;DHT22;24211;49.980;19.776;2022-09-29T18:03:26;13.40;99.90
38428;DHT22;24211;49.980;19.776;2022-09-29T18:05:55;13.30;99.90
38428;DHT22;24211;49.980;19.776;2022-09-29T18:08:25;13.50;99.90
38428;DHT22;24211;49.980;19.776;2022-09-29T18:11:00;13.10;99.90
38428;DHT22;24211;49.980;19.776;2022-09-29T18:13:28;13.00;99.90
38428;DHT22;24211;49.980;19.776;2022-09-29T18:16:03;13.10;99.90
38428;DHT22;24211;49.980;19.776;2022-09-29T18:18:31;13.20;99.90
38428;DHT22;24211;49.980;19.776;2022-09-29T18:20:59;13.30;99.90
38428;DHT22;24211;49.980;19.776;2022-09-29T18:23:27;13.10;99.90
38428;DHT22;24211;49.980;19.776;2022-09-29T18:25:54;13.20;99.90
38428;DHT22;24211;49.980;19.776;2022-09-29T18:28:21;12.80;99.90
38428;DHT22;24211;49.980;19.776;2022-09-29T18:30:54;13.00;99.90
38428;DHT22;24211;49.980;19.776;2022-09-29T18:33:28;13.10;99.90
38428;DHT22;24211;49.980;19.776;2022-09-29T18:35:56;13.40;99.90
38428;DHT22;24211;49.980;19.776;2022-09-29T18:38:23;13.40;99.90
38428;DHT22;24211;49.980;19.776;2022-09-29T18:40:51;13.40;99.90
38428;DHT22;24211;49.980;19.776;2022-09-29T18:43:24;13.40;99.90
38428;DHT22;24211;49.980;19.776;2022-09-29T18:45:54;13.40;99.90
38428;DHT22;24211;49.980;19.776;2022-09-29T18:48:23;13.40;99.90
38428;DHT22;24211;49.980;19.776;2022-09-29T18:50:51;13.40;99.90
38428;DHT22;24211;49.980;19.776;2022-09-29T18:53:21;13.30;99.90
38428;DHT22;24211;49.980;19.776;2022-09-29T18:55:49;13.30;99.90
38428;DHT22;24211;49.980;19.776;2022-09-29T18:58:22;13.30;99.90
38428;DHT22;24211;49.980;19.776;2022-09-29T19:00:51;13.20;99.90
38428;DHT22;24211;49.980;19.776;2022-09-29T19:03:23;13.20;99.90
38428;DHT22;24211;49.980;19.776;2022-09-29T19:05:53;13.20;99.90
38428;DHT22;24211;49.980;19.776;2022-09-29T19:08:22;13.20;99.90
38428;DHT22;24211;49.980;19.776;2022-09-29T19:10:55;13.20;99.90
38428;DHT22;24211;49.980;19.776;2022-09-29T19:13:24;13.10;99.90
38428;DHT22;24211;49.980;19.776;2022-09-29T19:15:56;13.10;99.90
38428;DHT22;24211;49.980;19.776;2022-09-29T19:18:25;13.10;99.90
38428;DHT22;24211;49.980;19.776;2022-09-29T19:20:55;13.00;99.90
38428;DHT22;24211;49.980;19.776;2022-09-29T19:23:24;13.00;99.90
38428;DHT22;24211;49.980;19.776;2022-09-29T19:25:54;12.90;99.90
38428;DHT22;24211;49.980;19.776;2022-09-29T19:28:24;12.90;99.90
38428;DHT22;24211;49.980;19.776;2022-09-29T19:30:54;12.90;99.90
38428;DHT22;24211;49.980;19.776;2022-09-29T19:33:30;12.80;99.90
38428;DHT22;24211;49.980;19.776;2022-09-29T19:36:01;12.80;99.90
38428;DHT22;24211;49.980;19.776;2022-09-29T19:38:30;12.70;99.90
38428;DHT22;24211;49.980;19.776;2022-09-29T19:40:58;12.70;99.90
38428;DHT22;24211;49.980;19.776;2022-09-29T19:43:25;12.60;99.90
38428;DHT22;24211;49.980;19.776;2022-09-29T19:45:53;12.60;99.90
38428;DHT22;24211;49.980;19.776;2022-09-29T19:48:21;12.60;99.90
38428;DHT22;24211;49.980;19.776;2022-09-29T19:50:56;12.60;99.90